sensor_id;sensor_type;location;lat;lon;timestamp;P1;durP1;ratioP1;P2;durP2;ratioP2
31210;SDS011;17836;50.948;3.946;2022-12-10T00:01:27;85.15;;;33.95;;
31210;SDS011;17836;50.948;3.946;2022-12-10T00:03:52;78.90;;;33.47;;
31210;SDS011;17836;50.948;3.946;2022-12-10T00:06:19;71.75;;;32.20;;
31210;SDS011;17836;50.948;3.946;2022-12-10T00:08:45;74.07;;;31.98;;
31210;SDS011;17836;50.948;3.946;2022-12-10T00:11:11;72.38;;;32.65;;
31210;SDS011;17836;50.948;3.946;2022-12-10T00:13:37;77.53;;;33.97;;
31210;SDS011;17836;50.948;3.946;2022-12-10T00:16:03;84.20;;;32.80;;
31210;SDS011;17836;50.948;3.946;2022-12-10T00:18:28;78.63;;;33.42;;
31210;SDS011;17836;50.948;3.946;2022-12-10T00:20:53;79.07;;;32.65;;
31210;SDS011;17836;50.948;3.946;2022-12-10T00:23:19;77.27;;;33.17;;
31210;SDS011;17836;50.948;3.946;2022-12-10T00:25:44;72.83;;;32.10;;
31210;SDS011;17836;50.948;3.946;2022-12-10T00:28:09;77.97;;;32.43;;
31210;SDS011;17836;50.948;3.946;2022-12-10T00:30:34;83.15;;;32.30;;
31210;SDS011;17836;50.948;3.946;2022-12-10T00:33:00;85.97;;;31.15;;
31210;SDS011;17836;50.948;3.946;2022-12-10T00:35:25;85.17;;;33.40;;
31210;SDS011;17836;50.948;3.946;2022-12-10T00:37:50;82.95;;;31.25;;
31210;SDS011;17836;50.948;3.946;2022-12-10T00:40:15;96.03;;;34.97;;
31210;SDS011;17836;50.948;3.946;2022-12-10T00:42:41;83.90;;;32.08;;
31210;SDS011;17836;50.948;3.946;2022-12-10T00:45:06;85.00;;;33.78;;
31210;SDS011;17836;50.948;3.946;2022-12-10T00:47:32;83.47;;;33.05;;
31210;SDS011;17836;50.948;3.946;2022-12-10T00:49:58;85.57;;;33.63;;
31210;SDS011;17836;50.948;3.946;2022-12-10T00:52:23;79.70;;;32.83;;
31210;SDS011;17836;50.948;3.946;2022-12-10T00:54:48;78.77;;;32.83;;
31210;SDS011;17836;50.948;3.946;2022-12-10T00:57:13;86.80;;;32.97;;
31210;SDS011;17836;50.948;3.946;2022-12-10T00:59:39;82.15;;;31.70;;
31210;SDS011;17836;50.948;3.946;2022-12-10T01:02:04;80.33;;;32.40;;
31210;SDS011;17836;50.948;3.946;2022-12-10T01:04:29;88.17;;;33.53;;
31210;SDS011;17836;50.948;3.946;2022-12-10T01:06:55;80.35;;;32.65;;
31210;SDS011;17836;50.948;3.946;2022-12-10T01:09:25;86.07;;;32.45;;
31210;SDS011;17836;50.948;3.946;2022-12-10T01:11:51;79.57;;;30.67;;
31210;SDS011;17836;50.948;3.946;2022-12-10T01:14:19;84.05;;;33.40;;
31210;SDS011;17836;50.948;3.946;2022-12-10T01:16:44;84.63;;;32.50;;
31210;SDS011;17836;50.948;3.946;2022-12-10T01:19:10;81.95;;;33.30;;
31210;SDS011;17836;50.948;3.946;2022-12-10T01:21:38;88.18;;;34.15;;
31210;SDS011;17836;50.948;3.946;2022-12-10T01:24:04;89.65;;;33.63;;
31210;SDS011;17836;50.948;3.946;2022-12-10T01:26:31;80.72;;;34.35;;
31210;SDS011;17836;50.948;3.946;2022-12-10T01:28:56;86.05;;;33.65;;
31210;SDS011;17836;50.948;3.946;2022-12-10T01:31:29;88.18;;;34.58;;
31210;SDS011;17836;50.948;3.946;2022-12-10T01:33:55;83.82;;;35.22;;
31210;SDS011;17836;50.948;3.946;2022-12-10T01:36:24;92.25;;;35.15;;
31210;SDS011;17836;50.948;3.946;2022-12-10T01:38:50;82.72;;;32.58;;
31210;SDS011;17836;50.948;3.946;2022-12-10T01:41:20;84.45;;;33.67;;
31210;SDS011;17836;50.948;3.946;2022-12-10T01:43:54;84.43;;;34.13;;
31210;SDS011;17836;50.948;3.946;2022-12-10T01:46:19;88.75;;;34.35;;
31210;SDS011;17836;50.948;3.946;2022-12-10T01:48:45;90.75;;;34.08;;
31210;SDS011;17836;50.948;3.946;2022-12-10T01:51:11;82.28;;;34.17;;
31210;SDS011;17836;50.948;3.946;2022-12-10T01:53:37;88.43;;;34.83;;
31210;SDS011;17836;50.948;3.946;2022-12-10T01:56:02;89.75;;;35.20;;
31210;SDS011;17836;50.948;3.946;2022-12-10T01:58:27;90.95;;;35.08;;
31210;SDS011;17836;50.948;3.946;2022-12-10T02:00:56;85.38;;;35.40;;
31210;SDS011;17836;50.948;3.946;2022-12-10T02:11:20;83.30;;;33.80;;
31210;SDS011;17836;50.948;3.946;2022-12-10T02:13:54;88.72;;;36.03;;
31210;SDS011;17836;50.948;3.946;2022-12-10T02:16:32;91.55;;;35.10;;
31210;SDS011;17836;50.948;3.946;2022-12-10T02:19:18;92.63;;;37.38;;
31210;SDS011;17836;50.948;3.946;2022-12-10T02:21:45;89.65;;;34.97;;
31210;SDS011;17836;50.948;3.946;2022-12-10T02:24:14;93.38;;;37.65;;
31210;SDS011;17836;50.948;3.946;2022-12-10T02:26:52;87.60;;;35.92;;
31210;SDS011;17836;50.948;3.946;2022-12-10T02:29:21;94.35;;;37.35;;
31210;SDS011;17836;50.948;3.946;2022-12-10T02:31:50;98.35;;;38.45;;
31210;SDS011;17836;50.948;3.946;2022-12-10T02:34:17;93.82;;;37.20;;
31210;SDS011;17836;50.948;3.946;2022-12-10T02:36:44;106.75;;;35.80;;
31210;SDS011;17836;50.948;3.946;2022-12-10T02:39:11;96.45;;;36.72;;
31210;SDS011;17836;50.948;3.946;2022-12-10T02:41:38;107.95;;;38.17;;
31210;SDS011;17836;50.948;3.946;2022-12-10T02:44:06;90.93;;;35.28;;
31210;SDS011;17836;50.948;3.946;2022-12-10T02:46:32;108.45;;;38.80;;
31210;SDS011;17836;50.948;3.946;2022-12-10T02:48:59;106.00;;;41.03;;
31210;SDS011;17836;50.948;3.946;2022-12-10T02:51:25;108.22;;;38.63;;
31210;SDS011;17836;50.948;3.946;2022-12-10T02:54:07;119.50;;;40.78;;
31210;SDS011;17836;50.948;3.946;2022-12-10T02:56:54;113.90;;;39.05;;
31210;SDS011;17836;50.948;3.946;2022-12-10T02:59:26;106.63;;;38.50;;
31210;SDS011;17836;50.948;3.946;2022-12-10T03:02:02;108.88;;;38.13;;
31210;SDS011;17836;50.948;3.946;2022-12-10T03:04:33;121.38;;;40.70;;
31210;SDS011;17836;50.948;3.946;2022-12-10T03:07:02;155.80;;;38.22;;
31210;SDS011;17836;50.948;3.946;2022-12-10T03:09:32;127.10;;;42.72;;
31210;SDS011;17836;50.948;3.946;2022-12-10T03:12:06;130.70;;;38.13;;
31210;SDS011;17836;50.948;3.946;2022-12-10T03:14:33;113.10;;;39.88;;
31210;SDS011;17836;50.948;3.946;2022-12-10T03:17:00;115.10;;;39.70;;
31210;SDS011;17836;50.948;3.946;2022-12-10T03:19:27;110.80;;;39.50;;
31210;SDS011;17836;50.948;3.946;2022-12-10T03:21:53;121.38;;;37.55;;
31210;SDS011;17836;50.948;3.946;2022-12-10T03:24:20;141.32;;;37.03;;
31210;SDS011;17836;50.948;3.946;2022-12-10T03:26:47;121.63;;;36.75;;
31210;SDS011;17836;50.948;3.946;2022-12-10T03:29:14;129.68;;;37.53;;
31210;SDS011;17836;50.948;3.946;2022-12-10T03:31:42;113.88;;;34.38;;
31210;SDS011;17836;50.948;3.946;2022-12-10T03:34:08;122.28;;;34.97;;
31210;SDS011;17836;50.948;3.946;2022-12-10T03:36:34;125.93;;;34.80;;
31210;SDS011;17836;50.948;3.946;2022-12-10T03:38:59;112.82;;;33.00;;
31210;SDS011;17836;50.948;3.946;2022-12-10T03:41:26;147.27;;;34.47;;
31210;SDS011;17836;50.948;3.946;2022-12-10T03:43:53;118.85;;;32.42;;
31210;SDS011;17836;50.948;3.946;2022-12-10T03:46:18;143.50;;;35.55;;
31210;SDS011;17836;50.948;3.946;2022-12-10T03:48:44;112.63;;;32.33;;
31210;SDS011;17836;50.948;3.946;2022-12-10T03:51:09;94.57;;;31.73;;
31210;SDS011;17836;50.948;3.946;2022-12-10T03:53:34;135.65;;;30.27;;
31210;SDS011;17836;50.948;3.946;2022-12-10T03:56:00;168.90;;;34.90;;
31210;SDS011;17836;50.948;3.946;2022-12-10T03:58:25;152.93;;;34.57;;
31210;SDS011;17836;50.948;3.946;2022-12-10T04:00:50;216.75;;;35.22;;
31210;SDS011;17836;50.948;3.946;2022-12-10T04:03:15;197.93;;;37.70;;
31210;SDS011;17836;50.948;3.946;2022-12-10T04:05:40;206.83;;;39.20;;
31210;SDS011;17836;50.948;3.946;2022-12-10T04:08:06;158.57;;;36.30;;
31210;SDS011;17836;50.948;3.946;2022-12-10T04:10:34;155.87;;;37.03;;
31210;SDS011;17836;50.948;3.946;2022-12-10T04:12:59;148.82;;;35.78;;
31210;SDS011;17836;50.948;3.946;2022-12-10T04:15:43;151.77;;;36.00;;
31210;SDS011;17836;50.948;3.946;2022-12-10T04:18:27;149.00;;;35.83;;
31210;SDS011;17836;50.948;3.946;2022-12-10T04:20:52;178.35;;;37.40;;
31210;SDS011;17836;50.948;3.946;2022-12-10T04:23:36;154.23;;;37.08;;
31210;SDS011;17836;50.948;3.946;2022-12-10T04:26:20;147.23;;;34.97;;
31210;SDS011;17836;50.948;3.946;2022-12-10T04:29:04;120.47;;;35.25;;
31210;SDS011;17836;50.948;3.946;2022-12-10T04:31:29;148.23;;;33.10;;
31210;SDS011;17836;50.948;3.946;2022-12-10T04:33:55;102.63;;;30.88;;
31210;SDS011;17836;50.948;3.946;2022-12-10T04:36:20;98.23;;;29.87;;
31210;SDS011;17836;50.948;3.946;2022-12-10T04:38:46;111.03;;;30.90;;
31210;SDS011;17836;50.948;3.946;2022-12-10T04:41:11;125.20;;;29.47;;
31210;SDS011;17836;50.948;3.946;2022-12-10T04:43:40;131.95;;;30.98;;
31210;SDS011;17836;50.948;3.946;2022-12-10T04:46:05;115.15;;;30.33;;
31210;SDS011;17836;50.948;3.946;2022-12-10T04:48:31;130.07;;;29.38;;
31210;SDS011;17836;50.948;3.946;2022-12-10T04:50:57;124.40;;;29.98;;
31210;SDS011;17836;50.948;3.946;2022-12-10T04:53:22;106.80;;;30.63;;
31210;SDS011;17836;50.948;3.946;2022-12-10T04:55:48;142.43;;;30.83;;
31210;SDS011;17836;50.948;3.946;2022-12-10T04:58:13;90.03;;;32.27;;
31210;SDS011;17836;50.948;3.946;2022-12-10T05:00:38;79.60;;;27.40;;
31210;SDS011;17836;50.948;3.946;2022-12-10T05:03:03;101.80;;;26.43;;
31210;SDS011;17836;50.948;3.946;2022-12-10T05:05:29;95.63;;;26.30;;
31210;SDS011;17836;50.948;3.946;2022-12-10T05:07:54;103.47;;;27.67;;
31210;SDS011;17836;50.948;3.946;2022-12-10T05:10:19;88.53;;;28.10;;
31210;SDS011;17836;50.948;3.946;2022-12-10T05:12:45;103.50;;;27.23;;
31210;SDS011;17836;50.948;3.946;2022-12-10T05:15:10;92.72;;;31.38;;
31210;SDS011;17836;50.948;3.946;2022-12-10T05:17:35;115.32;;;32.40;;
31210;SDS011;17836;50.948;3.946;2022-12-10T05:20:00;91.03;;;26.83;;
31210;SDS011;17836;50.948;3.946;2022-12-10T05:22:26;80.57;;;26.60;;
31210;SDS011;17836;50.948;3.946;2022-12-10T05:25:10;77.68;;;24.60;;
31210;SDS011;17836;50.948;3.946;2022-12-10T05:27:36;66.70;;;22.63;;
31210;SDS011;17836;50.948;3.946;2022-12-10T05:30:01;70.07;;;22.77;;
31210;SDS011;17836;50.948;3.946;2022-12-10T05:32:27;71.20;;;25.65;;
31210;SDS011;17836;50.948;3.946;2022-12-10T05:34:52;67.38;;;24.85;;
31210;SDS011;17836;50.948;3.946;2022-12-10T05:37:17;66.23;;;23.47;;
31210;SDS011;17836;50.948;3.946;2022-12-10T05:39:43;70.25;;;25.88;;
31210;SDS011;17836;50.948;3.946;2022-12-10T05:42:08;71.05;;;25.20;;
31210;SDS011;17836;50.948;3.946;2022-12-10T05:44:33;73.87;;;23.73;;
31210;SDS011;17836;50.948;3.946;2022-12-10T05:46:58;74.40;;;24.80;;
31210;SDS011;17836;50.948;3.946;2022-12-10T05:49:24;69.40;;;23.35;;
31210;SDS011;17836;50.948;3.946;2022-12-10T05:51:49;67.67;;;23.93;;
31210;SDS011;17836;50.948;3.946;2022-12-10T05:54:14;62.57;;;23.00;;
31210;SDS011;17836;50.948;3.946;2022-12-10T05:56:40;83.60;;;28.70;;
31210;SDS011;17836;50.948;3.946;2022-12-10T05:59:05;66.43;;;25.33;;
31210;SDS011;17836;50.948;3.946;2022-12-10T06:01:32;61.42;;;22.58;;
31210;SDS011;17836;50.948;3.946;2022-12-10T06:03:58;61.03;;;23.65;;
31210;SDS011;17836;50.948;3.946;2022-12-10T06:06:24;72.93;;;25.05;;
31210;SDS011;17836;50.948;3.946;2022-12-10T06:08:50;72.53;;;25.17;;
31210;SDS011;17836;50.948;3.946;2022-12-10T06:11:16;68.65;;;24.60;;
31210;SDS011;17836;50.948;3.946;2022-12-10T06:13:42;89.95;;;23.73;;
31210;SDS011;17836;50.948;3.946;2022-12-10T06:16:08;68.57;;;24.80;;
31210;SDS011;17836;50.948;3.946;2022-12-10T06:18:33;67.45;;;22.35;;
31210;SDS011;17836;50.948;3.946;2022-12-10T06:20:59;68.85;;;25.85;;
31210;SDS011;17836;50.948;3.946;2022-12-10T06:23:27;71.55;;;24.55;;
31210;SDS011;17836;50.948;3.946;2022-12-10T06:25:53;69.13;;;23.42;;
31210;SDS011;17836;50.948;3.946;2022-12-10T06:28:18;74.23;;;23.80;;
31210;SDS011;17836;50.948;3.946;2022-12-10T06:30:43;61.10;;;24.63;;
31210;SDS011;17836;50.948;3.946;2022-12-10T06:33:08;65.82;;;22.35;;
31210;SDS011;17836;50.948;3.946;2022-12-10T06:35:33;51.80;;;20.27;;
31210;SDS011;17836;50.948;3.946;2022-12-10T06:37:59;56.45;;;22.42;;
31210;SDS011;17836;50.948;3.946;2022-12-10T06:40:24;63.83;;;22.45;;
31210;SDS011;17836;50.948;3.946;2022-12-10T06:42:50;58.27;;;20.80;;
31210;SDS011;17836;50.948;3.946;2022-12-10T06:45:16;49.40;;;20.48;;
31210;SDS011;17836;50.948;3.946;2022-12-10T06:47:41;55.28;;;20.50;;
31210;SDS011;17836;50.948;3.946;2022-12-10T06:50:07;54.60;;;21.80;;
31210;SDS011;17836;50.948;3.946;2022-12-10T06:52:32;48.13;;;19.30;;
31210;SDS011;17836;50.948;3.946;2022-12-10T06:54:57;49.42;;;19.98;;
31210;SDS011;17836;50.948;3.946;2022-12-10T06:57:23;52.50;;;23.13;;
31210;SDS011;17836;50.948;3.946;2022-12-10T06:59:49;52.42;;;19.05;;
31210;SDS011;17836;50.948;3.946;2022-12-10T07:02:15;57.45;;;20.92;;
31210;SDS011;17836;50.948;3.946;2022-12-10T07:04:40;58.05;;;21.55;;
31210;SDS011;17836;50.948;3.946;2022-12-10T07:07:05;63.13;;;22.13;;
31210;SDS011;17836;50.948;3.946;2022-12-10T07:09:31;56.22;;;20.80;;
31210;SDS011;17836;50.948;3.946;2022-12-10T07:11:57;54.78;;;21.70;;
31210;SDS011;17836;50.948;3.946;2022-12-10T07:14:22;70.60;;;20.60;;
31210;SDS011;17836;50.948;3.946;2022-12-10T07:16:48;53.63;;;20.98;;
31210;SDS011;17836;50.948;3.946;2022-12-10T07:19:13;61.87;;;21.80;;
31210;SDS011;17836;50.948;3.946;2022-12-10T07:21:40;58.42;;;20.52;;
31210;SDS011;17836;50.948;3.946;2022-12-10T07:24:07;58.33;;;21.40;;
31210;SDS011;17836;50.948;3.946;2022-12-10T07:26:34;51.75;;;20.73;;
31210;SDS011;17836;50.948;3.946;2022-12-10T07:29:00;63.25;;;21.52;;
31210;SDS011;17836;50.948;3.946;2022-12-10T07:31:25;54.80;;;22.70;;
31210;SDS011;17836;50.948;3.946;2022-12-10T07:33:52;55.42;;;19.98;;
31210;SDS011;17836;50.948;3.946;2022-12-10T07:36:18;69.85;;;21.58;;
31210;SDS011;17836;50.948;3.946;2022-12-10T07:38:43;66.22;;;22.00;;
31210;SDS011;17836;50.948;3.946;2022-12-10T07:41:10;53.10;;;21.40;;
31210;SDS011;17836;50.948;3.946;2022-12-10T07:43:36;62.05;;;21.80;;
31210;SDS011;17836;50.948;3.946;2022-12-10T07:46:16;51.38;;;22.45;;
31210;SDS011;17836;50.948;3.946;2022-12-10T07:48:41;57.58;;;23.63;;
31210;SDS011;17836;50.948;3.946;2022-12-10T07:51:07;51.10;;;20.92;;
31210;SDS011;17836;50.948;3.946;2022-12-10T07:53:32;54.10;;;21.13;;
31210;SDS011;17836;50.948;3.946;2022-12-10T07:55:58;58.35;;;23.58;;
31210;SDS011;17836;50.948;3.946;2022-12-10T07:58:23;63.60;;;21.73;;
31210;SDS011;17836;50.948;3.946;2022-12-10T08:00:48;54.30;;;19.83;;
31210;SDS011;17836;50.948;3.946;2022-12-10T08:03:13;58.47;;;21.17;;
31210;SDS011;17836;50.948;3.946;2022-12-10T08:05:38;57.47;;;20.95;;
31210;SDS011;17836;50.948;3.946;2022-12-10T08:08:04;59.40;;;21.27;;
31210;SDS011;17836;50.948;3.946;2022-12-10T08:10:30;67.22;;;22.08;;
31210;SDS011;17836;50.948;3.946;2022-12-10T08:12:57;49.55;;;19.50;;
31210;SDS011;17836;50.948;3.946;2022-12-10T08:15:23;55.07;;;20.43;;
31210;SDS011;17836;50.948;3.946;2022-12-10T08:17:48;52.70;;;20.50;;
31210;SDS011;17836;50.948;3.946;2022-12-10T08:20:13;60.28;;;21.20;;
31210;SDS011;17836;50.948;3.946;2022-12-10T08:22:39;51.00;;;21.63;;
31210;SDS011;17836;50.948;3.946;2022-12-10T08:25:04;57.17;;;21.13;;
31210;SDS011;17836;50.948;3.946;2022-12-10T08:27:30;55.97;;;19.95;;
31210;SDS011;17836;50.948;3.946;2022-12-10T08:29:55;50.33;;;20.00;;
31210;SDS011;17836;50.948;3.946;2022-12-10T08:32:20;53.20;;;19.20;;
31210;SDS011;17836;50.948;3.946;2022-12-10T08:34:45;65.07;;;19.30;;
31210;SDS011;17836;50.948;3.946;2022-12-10T08:37:11;60.05;;;19.88;;
31210;SDS011;17836;50.948;3.946;2022-12-10T08:39:36;48.03;;;19.63;;
31210;SDS011;17836;50.948;3.946;2022-12-10T08:42:02;64.30;;;21.50;;
31210;SDS011;17836;50.948;3.946;2022-12-10T08:44:28;57.05;;;21.30;;
31210;SDS011;17836;50.948;3.946;2022-12-10T08:46:54;52.45;;;20.20;;
31210;SDS011;17836;50.948;3.946;2022-12-10T08:49:19;50.55;;;20.25;;
31210;SDS011;17836;50.948;3.946;2022-12-10T08:51:45;48.60;;;20.15;;
31210;SDS011;17836;50.948;3.946;2022-12-10T08:54:13;54.03;;;20.00;;
31210;SDS011;17836;50.948;3.946;2022-12-10T08:56:39;51.85;;;18.20;;
31210;SDS011;17836;50.948;3.946;2022-12-10T08:59:04;47.33;;;19.23;;
31210;SDS011;17836;50.948;3.946;2022-12-10T09:01:30;43.00;;;19.63;;
31210;SDS011;17836;50.948;3.946;2022-12-10T09:03:56;53.42;;;20.15;;
31210;SDS011;17836;50.948;3.946;2022-12-10T09:06:22;67.68;;;20.60;;
31210;SDS011;17836;50.948;3.946;2022-12-10T09:08:49;49.25;;;19.92;;
31210;SDS011;17836;50.948;3.946;2022-12-10T09:11:18;55.45;;;19.90;;
31210;SDS011;17836;50.948;3.946;2022-12-10T09:13:45;46.22;;;19.77;;
31210;SDS011;17836;50.948;3.946;2022-12-10T09:16:10;56.38;;;19.85;;
31210;SDS011;17836;50.948;3.946;2022-12-10T09:18:35;53.40;;;20.77;;
31210;SDS011;17836;50.948;3.946;2022-12-10T09:21:05;53.95;;;21.38;;
31210;SDS011;17836;50.948;3.946;2022-12-10T09:23:31;52.33;;;23.50;;
31210;SDS011;17836;50.948;3.946;2022-12-10T09:25:56;56.57;;;22.67;;
31210;SDS011;17836;50.948;3.946;2022-12-10T09:28:21;58.75;;;24.20;;
31210;SDS011;17836;50.948;3.946;2022-12-10T09:30:54;52.30;;;22.55;;
31210;SDS011;17836;50.948;3.946;2022-12-10T09:33:19;64.18;;;25.30;;
31210;SDS011;17836;50.948;3.946;2022-12-10T09:35:44;58.08;;;24.23;;
31210;SDS011;17836;50.948;3.946;2022-12-10T09:38:10;61.13;;;25.13;;
31210;SDS011;17836;50.948;3.946;2022-12-10T09:40:38;66.70;;;23.30;;
31210;SDS011;17836;50.948;3.946;2022-12-10T09:43:05;59.67;;;24.15;;
31210;SDS011;17836;50.948;3.946;2022-12-10T09:50:47;58.17;;;22.13;;
31210;SDS011;17836;50.948;3.946;2022-12-10T09:53:14;61.38;;;23.00;;
31210;SDS011;17836;50.948;3.946;2022-12-10T09:55:42;58.28;;;23.80;;
31210;SDS011;17836;50.948;3.946;2022-12-10T09:58:08;70.40;;;24.85;;
31210;SDS011;17836;50.948;3.946;2022-12-10T10:00:39;67.43;;;23.63;;
31210;SDS011;17836;50.948;3.946;2022-12-10T10:03:06;65.72;;;24.65;;
31210;SDS011;17836;50.948;3.946;2022-12-10T10:05:33;67.28;;;25.42;;
31210;SDS011;17836;50.948;3.946;2022-12-10T10:08:04;79.50;;;27.17;;
31210;SDS011;17836;50.948;3.946;2022-12-10T10:10:33;80.15;;;26.80;;
31210;SDS011;17836;50.948;3.946;2022-12-10T10:13:01;72.25;;;26.85;;
31210;SDS011;17836;50.948;3.946;2022-12-10T10:15:35;72.78;;;26.50;;
31210;SDS011;17836;50.948;3.946;2022-12-10T10:18:05;66.15;;;23.95;;
31210;SDS011;17836;50.948;3.946;2022-12-10T10:20:34;66.95;;;25.35;;
31210;SDS011;17836;50.948;3.946;2022-12-10T10:23:00;75.10;;;25.98;;
31210;SDS011;17836;50.948;3.946;2022-12-10T10:25:26;74.13;;;26.55;;
31210;SDS011;17836;50.948;3.946;2022-12-10T10:27:55;79.07;;;26.38;;
31210;SDS011;17836;50.948;3.946;2022-12-10T10:30:21;75.93;;;26.95;;
31210;SDS011;17836;50.948;3.946;2022-12-10T10:32:49;76.30;;;26.58;;
31210;SDS011;17836;50.948;3.946;2022-12-10T10:35:32;74.72;;;28.05;;
31210;SDS011;17836;50.948;3.946;2022-12-10T10:38:01;80.63;;;28.20;;
31210;SDS011;17836;50.948;3.946;2022-12-10T10:41:11;78.28;;;26.88;;
31210;SDS011;17836;50.948;3.946;2022-12-10T10:44:00;66.93;;;26.70;;
31210;SDS011;17836;50.948;3.946;2022-12-10T10:46:11;70.43;;;27.70;;
31210;SDS011;17836;50.948;3.946;2022-12-10T10:48:37;71.90;;;28.35;;
31210;SDS011;17836;50.948;3.946;2022-12-10T10:56:40;66.10;;;24.45;;
31210;SDS011;17836;50.948;3.946;2022-12-10T11:01:14;66.88;;;24.98;;
31210;SDS011;17836;50.948;3.946;2022-12-10T11:03:45;67.60;;;24.98;;
31210;SDS011;17836;50.948;3.946;2022-12-10T11:06:11;58.45;;;21.30;;
31210;SDS011;17836;50.948;3.946;2022-12-10T11:08:37;59.80;;;22.80;;
31210;SDS011;17836;50.948;3.946;2022-12-10T11:11:05;70.28;;;23.65;;
31210;SDS011;17836;50.948;3.946;2022-12-10T11:13:32;59.28;;;23.73;;
31210;SDS011;17836;50.948;3.946;2022-12-10T11:15:59;64.05;;;23.25;;
31210;SDS011;17836;50.948;3.946;2022-12-10T11:18:29;66.60;;;24.90;;
31210;SDS011;17836;50.948;3.946;2022-12-10T11:20:56;58.03;;;23.35;;
31210;SDS011;17836;50.948;3.946;2022-12-10T11:23:22;54.88;;;21.38;;
31210;SDS011;17836;50.948;3.946;2022-12-10T11:30:45;49.70;;;21.25;;
31210;SDS011;17836;50.948;3.946;2022-12-10T11:35:52;55.88;;;22.45;;
31210;SDS011;17836;50.948;3.946;2022-12-10T11:38:23;51.38;;;20.80;;
31210;SDS011;17836;50.948;3.946;2022-12-10T11:40:50;54.63;;;22.08;;
31210;SDS011;17836;50.948;3.946;2022-12-10T11:51:15;54.88;;;21.40;;
31210;SDS011;17836;50.948;3.946;2022-12-10T11:56:28;59.03;;;24.67;;
31210;SDS011;17836;50.948;3.946;2022-12-10T12:09:20;65.40;;;24.60;;
31210;SDS011;17836;50.948;3.946;2022-12-10T12:14:37;61.90;;;23.05;;
31210;SDS011;17836;50.948;3.946;2022-12-10T12:19:40;62.33;;;24.17;;
31210;SDS011;17836;50.948;3.946;2022-12-10T12:22:15;56.03;;;23.67;;
31210;SDS011;17836;50.948;3.946;2022-12-10T12:24:42;53.72;;;21.67;;
31210;SDS011;17836;50.948;3.946;2022-12-10T12:29:43;59.45;;;22.65;;
31210;SDS011;17836;50.948;3.946;2022-12-10T12:32:27;60.05;;;23.17;;
31210;SDS011;17836;50.948;3.946;2022-12-10T12:37:25;63.17;;;23.10;;
31210;SDS011;17836;50.948;3.946;2022-12-10T12:40:15;61.90;;;22.95;;
31210;SDS011;17836;50.948;3.946;2022-12-10T12:42:47;60.38;;;22.00;;
31210;SDS011;17836;50.948;3.946;2022-12-10T12:45:28;58.43;;;21.97;;
31210;SDS011;17836;50.948;3.946;2022-12-10T12:47:57;62.05;;;22.85;;
31210;SDS011;17836;50.948;3.946;2022-12-10T12:52:53;54.45;;;22.67;;
31210;SDS011;17836;50.948;3.946;2022-12-10T12:55:28;62.90;;;22.63;;
31210;SDS011;17836;50.948;3.946;2022-12-10T13:00:28;61.75;;;23.25;;
31210;SDS011;17836;50.948;3.946;2022-12-10T13:05:38;54.85;;;21.98;;
31210;SDS011;17836;50.948;3.946;2022-12-10T13:08:25;61.70;;;21.67;;
31210;SDS011;17836;50.948;3.946;2022-12-10T13:18:48;59.17;;;22.45;;
31210;SDS011;17836;50.948;3.946;2022-12-10T13:23:51;56.53;;;22.30;;
31210;SDS011;17836;50.948;3.946;2022-12-10T13:26:26;65.45;;;25.58;;
31210;SDS011;17836;50.948;3.946;2022-12-10T13:28:54;66.75;;;25.45;;
31210;SDS011;17836;50.948;3.946;2022-12-10T13:31:21;69.78;;;24.23;;
31210;SDS011;17836;50.948;3.946;2022-12-10T13:36:13;65.82;;;22.05;;
31210;SDS011;17836;50.948;3.946;2022-12-10T13:38:39;68.82;;;25.08;;
31210;SDS011;17836;50.948;3.946;2022-12-10T13:41:06;63.13;;;24.75;;
31210;SDS011;17836;50.948;3.946;2022-12-10T13:43:57;64.55;;;26.60;;
31210;SDS011;17836;50.948;3.946;2022-12-10T13:46:54;65.90;;;27.85;;
31210;SDS011;17836;50.948;3.946;2022-12-10T13:49:22;69.53;;;27.00;;
31210;SDS011;17836;50.948;3.946;2022-12-10T14:07:26;64.07;;;23.15;;
31210;SDS011;17836;50.948;3.946;2022-12-10T14:09:53;62.20;;;23.38;;
31210;SDS011;17836;50.948;3.946;2022-12-10T14:12:24;64.28;;;24.63;;
31210;SDS011;17836;50.948;3.946;2022-12-10T14:14:55;71.03;;;25.02;;
31210;SDS011;17836;50.948;3.946;2022-12-10T14:17:23;83.15;;;28.50;;
31210;SDS011;17836;50.948;3.946;2022-12-10T14:19:49;75.07;;;29.05;;
31210;SDS011;17836;50.948;3.946;2022-12-10T14:22:38;67.85;;;27.25;;
31210;SDS011;17836;50.948;3.946;2022-12-10T14:25:03;72.68;;;26.63;;
31210;SDS011;17836;50.948;3.946;2022-12-10T14:27:30;63.72;;;26.00;;
31210;SDS011;17836;50.948;3.946;2022-12-10T14:30:03;66.95;;;23.83;;
31210;SDS011;17836;50.948;3.946;2022-12-10T14:32:34;66.63;;;25.15;;
31210;SDS011;17836;50.948;3.946;2022-12-10T14:35:01;63.35;;;24.67;;
31210;SDS011;17836;50.948;3.946;2022-12-10T14:37:28;67.90;;;26.27;;
31210;SDS011;17836;50.948;3.946;2022-12-10T14:39:55;62.70;;;23.83;;
31210;SDS011;17836;50.948;3.946;2022-12-10T14:42:21;65.28;;;25.90;;
31210;SDS011;17836;50.948;3.946;2022-12-10T14:44:46;71.38;;;28.10;;
31210;SDS011;17836;50.948;3.946;2022-12-10T14:47:17;80.47;;;31.95;;
31210;SDS011;17836;50.948;3.946;2022-12-10T14:49:44;71.57;;;29.40;;
31210;SDS011;17836;50.948;3.946;2022-12-10T14:52:20;67.10;;;27.95;;
31210;SDS011;17836;50.948;3.946;2022-12-10T14:54:46;62.75;;;24.05;;
31210;SDS011;17836;50.948;3.946;2022-12-10T14:57:31;61.88;;;24.33;;
31210;SDS011;17836;50.948;3.946;2022-12-10T15:00:03;64.13;;;27.35;;
31210;SDS011;17836;50.948;3.946;2022-12-10T15:02:31;63.72;;;24.75;;
31210;SDS011;17836;50.948;3.946;2022-12-10T15:04:58;60.85;;;23.27;;
31210;SDS011;17836;50.948;3.946;2022-12-10T15:07:25;59.78;;;24.23;;
31210;SDS011;17836;50.948;3.946;2022-12-10T15:09:52;64.65;;;25.33;;
31210;SDS011;17836;50.948;3.946;2022-12-10T15:14:53;60.28;;;25.27;;
31210;SDS011;17836;50.948;3.946;2022-12-10T15:17:32;52.13;;;24.40;;
31210;SDS011;17836;50.948;3.946;2022-12-10T15:19:58;56.45;;;24.88;;
31210;SDS011;17836;50.948;3.946;2022-12-10T15:22:25;53.25;;;22.42;;
31210;SDS011;17836;50.948;3.946;2022-12-10T15:24:51;48.95;;;22.77;;
31210;SDS011;17836;50.948;3.946;2022-12-10T15:27:18;51.33;;;23.20;;
31210;SDS011;17836;50.948;3.946;2022-12-10T15:29:44;57.67;;;24.60;;
31210;SDS011;17836;50.948;3.946;2022-12-10T15:32:26;58.53;;;24.42;;
31210;SDS011;17836;50.948;3.946;2022-12-10T15:34:55;53.40;;;23.15;;
31210;SDS011;17836;50.948;3.946;2022-12-10T15:37:24;52.08;;;22.83;;
31210;SDS011;17836;50.948;3.946;2022-12-10T15:39:53;60.13;;;24.50;;
31210;SDS011;17836;50.948;3.946;2022-12-10T15:45:26;52.40;;;22.83;;
31210;SDS011;17836;50.948;3.946;2022-12-10T15:47:51;53.83;;;23.67;;
31210;SDS011;17836;50.948;3.946;2022-12-10T15:50:16;52.30;;;24.25;;
31210;SDS011;17836;50.948;3.946;2022-12-10T15:52:41;53.33;;;23.13;;
31210;SDS011;17836;50.948;3.946;2022-12-10T15:55:07;55.72;;;25.55;;
31210;SDS011;17836;50.948;3.946;2022-12-10T15:57:34;59.42;;;25.05;;
31210;SDS011;17836;50.948;3.946;2022-12-10T16:00:04;53.47;;;24.90;;
31210;SDS011;17836;50.948;3.946;2022-12-10T16:02:41;53.10;;;24.30;;
31210;SDS011;17836;50.948;3.946;2022-12-10T16:07:37;56.45;;;26.83;;